sensor_id;sensor_type;location;lat;lon;timestamp;P1;durP1;ratioP1;P2;durP2;ratioP2
69226;SDS011;56334;52.398;7.552;2023-11-22T00:02:25;15.00;;;5.18;;
69226;SDS011;56334;52.398;7.552;2023-11-22T00:04:53;17.00;;;6.78;;
69226;SDS011;56334;52.398;7.552;2023-11-22T00:07:19;15.43;;;5.57;;
69226;SDS011;56334;52.398;7.552;2023-11-22T00:09:46;15.18;;;5.38;;
69226;SDS011;56334;52.398;7.552;2023-11-22T00:12:12;12.52;;;4.90;;
69226;SDS011;56334;52.398;7.552;2023-11-22T00:14:38;15.50;;;5.60;;
69226;SDS011;56334;52.398;7.552;2023-11-22T00:17:04;14.68;;;5.53;;
69226;SDS011;56334;52.398;7.552;2023-11-22T00:19:31;14.82;;;5.47;;
69226;SDS011;56334;52.398;7.552;2023-11-22T00:21:57;15.65;;;5.60;;
69226;SDS011;56334;52.398;7.552;2023-11-22T00:24:23;16.27;;;6.40;;
69226;SDS011;56334;52.398;7.552;2023-11-22T00:26:49;15.18;;;5.97;;
69226;SDS011;56334;52.398;7.552;2023-11-22T00:29:15;15.50;;;6.22;;
69226;SDS011;56334;52.398;7.552;2023-11-22T00:31:41;16.33;;;5.57;;
69226;SDS011;56334;52.398;7.552;2023-11-22T00:34:09;17.10;;;5.93;;
69226;SDS011;56334;52.398;7.552;2023-11-22T00:36:35;15.55;;;6.07;;
69226;SDS011;56334;52.398;7.552;2023-11-22T00:39:01;16.50;;;5.90;;
69226;SDS011;56334;52.398;7.552;2023-11-22T00:41:31;17.92;;;5.90;;
69226;SDS011;56334;52.398;7.552;2023-11-22T00:43:58;18.50;;;6.82;;
69226;SDS011;56334;52.398;7.552;2023-11-22T00:46:24;15.57;;;5.78;;
69226;SDS011;56334;52.398;7.552;2023-11-22T00:48:50;16.90;;;6.00;;
69226;SDS011;56334;52.398;7.552;2023-11-22T00:51:15;17.98;;;6.43;;
69226;SDS011;56334;52.398;7.552;2023-11-22T00:53:41;15.40;;;6.10;;
69226;SDS011;56334;52.398;7.552;2023-11-22T00:56:07;17.88;;;5.75;;
69226;SDS011;56334;52.398;7.552;2023-11-22T00:58:33;16.65;;;6.13;;
69226;SDS011;56334;52.398;7.552;2023-11-22T01:00:59;16.90;;;6.60;;
69226;SDS011;56334;52.398;7.552;2023-11-22T01:03:25;16.52;;;6.25;;
69226;SDS011;56334;52.398;7.552;2023-11-22T01:05:51;18.23;;;6.50;;
69226;SDS011;56334;52.398;7.552;2023-11-22T01:08:18;17.15;;;6.47;;
69226;SDS011;56334;52.398;7.552;2023-11-22T01:10:44;16.08;;;5.82;;
69226;SDS011;56334;52.398;7.552;2023-11-22T01:13:11;16.92;;;6.60;;
69226;SDS011;56334;52.398;7.552;2023-11-22T01:15:37;16.60;;;6.15;;
69226;SDS011;56334;52.398;7.552;2023-11-22T01:18:03;15.80;;;5.93;;
69226;SDS011;56334;52.398;7.552;2023-11-22T01:20:29;16.50;;;5.70;;
69226;SDS011;56334;52.398;7.552;2023-11-22T01:22:54;19.00;;;5.97;;
69226;SDS011;56334;52.398;7.552;2023-11-22T01:25:20;16.50;;;6.60;;
69226;SDS011;56334;52.398;7.552;2023-11-22T01:27:47;17.40;;;6.43;;
69226;SDS011;56334;52.398;7.552;2023-11-22T01:30:13;18.08;;;6.32;;
69226;SDS011;56334;52.398;7.552;2023-11-22T01:32:39;20.38;;;7.25;;
69226;SDS011;56334;52.398;7.552;2023-11-22T01:35:05;15.73;;;6.15;;
69226;SDS011;56334;52.398;7.552;2023-11-22T01:37:31;15.38;;;6.13;;
69226;SDS011;56334;52.398;7.552;2023-11-22T01:39:58;17.45;;;6.18;;
69226;SDS011;56334;52.398;7.552;2023-11-22T01:42:24;17.23;;;6.32;;
69226;SDS011;56334;52.398;7.552;2023-11-22T01:44:50;17.25;;;6.55;;
69226;SDS011;56334;52.398;7.552;2023-11-22T01:47:17;18.27;;;7.07;;
69226;SDS011;56334;52.398;7.552;2023-11-22T01:49:44;17.77;;;6.90;;
69226;SDS011;56334;52.398;7.552;2023-11-22T01:52:11;18.17;;;6.45;;
69226;SDS011;56334;52.398;7.552;2023-11-22T01:54:37;17.48;;;6.80;;
69226;SDS011;56334;52.398;7.552;2023-11-22T01:57:03;19.75;;;7.28;;
69226;SDS011;56334;52.398;7.552;2023-11-22T01:59:32;19.63;;;7.15;;
69226;SDS011;56334;52.398;7.552;2023-11-22T02:01:59;17.85;;;6.72;;
69226;SDS011;56334;52.398;7.552;2023-11-22T02:04:24;18.27;;;7.03;;
69226;SDS011;56334;52.398;7.552;2023-11-22T02:06:51;20.08;;;7.90;;
69226;SDS011;56334;52.398;7.552;2023-11-22T02:09:17;18.42;;;7.05;;
69226;SDS011;56334;52.398;7.552;2023-11-22T02:11:44;18.25;;;7.78;;
69226;SDS011;56334;52.398;7.552;2023-11-22T02:14:14;18.05;;;7.05;;
69226;SDS011;56334;52.398;7.552;2023-11-22T02:16:40;18.75;;;7.32;;
69226;SDS011;56334;52.398;7.552;2023-11-22T02:19:08;21.88;;;7.28;;
69226;SDS011;56334;52.398;7.552;2023-11-22T02:21:39;18.13;;;6.97;;
69226;SDS011;56334;52.398;7.552;2023-11-22T02:24:05;22.70;;;7.93;;
69226;SDS011;56334;52.398;7.552;2023-11-22T02:26:32;23.95;;;8.27;;
69226;SDS011;56334;52.398;7.552;2023-11-22T02:28:58;18.27;;;7.35;;
69226;SDS011;56334;52.398;7.552;2023-11-22T02:31:24;22.00;;;8.02;;
69226;SDS011;56334;52.398;7.552;2023-11-22T02:33:52;19.42;;;7.00;;
69226;SDS011;56334;52.398;7.552;2023-11-22T02:36:18;19.55;;;7.60;;
69226;SDS011;56334;52.398;7.552;2023-11-22T02:38:44;21.33;;;7.60;;
69226;SDS011;56334;52.398;7.552;2023-11-22T02:41:12;20.80;;;7.75;;
69226;SDS011;56334;52.398;7.552;2023-11-22T02:43:38;19.50;;;7.57;;
69226;SDS011;56334;52.398;7.552;2023-11-22T02:46:06;19.73;;;7.38;;
69226;SDS011;56334;52.398;7.552;2023-11-22T02:48:33;21.13;;;7.28;;
69226;SDS011;56334;52.398;7.552;2023-11-22T02:50:59;21.10;;;7.90;;
69226;SDS011;56334;52.398;7.552;2023-11-22T02:53:25;20.05;;;7.20;;
69226;SDS011;56334;52.398;7.552;2023-11-22T02:55:52;20.50;;;7.90;;
69226;SDS011;56334;52.398;7.552;2023-11-22T02:58:20;21.42;;;7.63;;
69226;SDS011;56334;52.398;7.552;2023-11-22T03:00:46;19.92;;;8.38;;
69226;SDS011;56334;52.398;7.552;2023-11-22T03:03:13;20.02;;;7.93;;
69226;SDS011;56334;52.398;7.552;2023-11-22T03:05:40;23.17;;;8.10;;
69226;SDS011;56334;52.398;7.552;2023-11-22T03:08:06;22.02;;;7.32;;
69226;SDS011;56334;52.398;7.552;2023-11-22T03:10:35;21.83;;;7.72;;
69226;SDS011;56334;52.398;7.552;2023-11-22T03:13:01;21.30;;;7.45;;
69226;SDS011;56334;52.398;7.552;2023-11-22T03:15:27;21.05;;;8.05;;
69226;SDS011;56334;52.398;7.552;2023-11-22T03:17:53;21.30;;;8.23;;
69226;SDS011;56334;52.398;7.552;2023-11-22T03:20:19;26.73;;;8.52;;
69226;SDS011;56334;52.398;7.552;2023-11-22T03:22:46;18.50;;;7.30;;
69226;SDS011;56334;52.398;7.552;2023-11-22T03:25:15;18.50;;;6.70;;
69226;SDS011;56334;52.398;7.552;2023-11-22T03:27:41;22.58;;;7.82;;
69226;SDS011;56334;52.398;7.552;2023-11-22T03:30:07;21.58;;;8.00;;
69226;SDS011;56334;52.398;7.552;2023-11-22T03:32:37;23.13;;;8.27;;
69226;SDS011;56334;52.398;7.552;2023-11-22T03:35:05;18.88;;;7.30;;
69226;SDS011;56334;52.398;7.552;2023-11-22T03:37:31;21.10;;;7.75;;
69226;SDS011;56334;52.398;7.552;2023-11-22T03:39:57;21.08;;;7.68;;
69226;SDS011;56334;52.398;7.552;2023-11-22T03:42:23;21.75;;;8.73;;
69226;SDS011;56334;52.398;7.552;2023-11-22T03:44:49;18.80;;;7.00;;
69226;SDS011;56334;52.398;7.552;2023-11-22T03:47:15;22.15;;;8.20;;
69226;SDS011;56334;52.398;7.552;2023-11-22T03:49:41;18.77;;;7.85;;
69226;SDS011;56334;52.398;7.552;2023-11-22T03:52:10;18.25;;;7.10;;
69226;SDS011;56334;52.398;7.552;2023-11-22T03:54:37;19.65;;;7.47;;
69226;SDS011;56334;52.398;7.552;2023-11-22T03:57:03;19.10;;;6.80;;
69226;SDS011;56334;52.398;7.552;2023-11-22T03:59:29;20.60;;;8.07;;
69226;SDS011;56334;52.398;7.552;2023-11-22T04:01:55;21.77;;;7.80;;
69226;SDS011;56334;52.398;7.552;2023-11-22T04:04:22;20.90;;;8.40;;
69226;SDS011;56334;52.398;7.552;2023-11-22T04:06:48;23.83;;;8.32;;
69226;SDS011;56334;52.398;7.552;2023-11-22T04:09:15;22.10;;;8.50;;
69226;SDS011;56334;52.398;7.552;2023-11-22T04:11:45;20.00;;;7.82;;
69226;SDS011;56334;52.398;7.552;2023-11-22T04:14:12;21.92;;;8.48;;
69226;SDS011;56334;52.398;7.552;2023-11-22T04:16:38;20.40;;;8.93;;
69226;SDS011;56334;52.398;7.552;2023-11-22T04:19:04;21.92;;;8.10;;
69226;SDS011;56334;52.398;7.552;2023-11-22T04:21:30;21.00;;;7.95;;
69226;SDS011;56334;52.398;7.552;2023-11-22T04:23:56;21.98;;;8.00;;
69226;SDS011;56334;52.398;7.552;2023-11-22T04:26:23;21.38;;;7.70;;
69226;SDS011;56334;52.398;7.552;2023-11-22T04:28:49;18.30;;;6.90;;
69226;SDS011;56334;52.398;7.552;2023-11-22T04:31:15;17.38;;;7.25;;
69226;SDS011;56334;52.398;7.552;2023-11-22T04:33:42;21.40;;;7.63;;
69226;SDS011;56334;52.398;7.552;2023-11-22T04:36:08;20.48;;;7.93;;
69226;SDS011;56334;52.398;7.552;2023-11-22T04:38:34;19.52;;;7.55;;
69226;SDS011;56334;52.398;7.552;2023-11-22T04:41:00;19.45;;;7.50;;
69226;SDS011;56334;52.398;7.552;2023-11-22T04:43:26;19.95;;;7.40;;
69226;SDS011;56334;52.398;7.552;2023-11-22T04:45:52;23.38;;;8.10;;
69226;SDS011;56334;52.398;7.552;2023-11-22T04:48:18;20.42;;;8.15;;
69226;SDS011;56334;52.398;7.552;2023-11-22T04:50:44;19.10;;;7.65;;
69226;SDS011;56334;52.398;7.552;2023-11-22T04:53:10;18.80;;;7.63;;
69226;SDS011;56334;52.398;7.552;2023-11-22T04:55:36;22.48;;;8.52;;
69226;SDS011;56334;52.398;7.552;2023-11-22T04:58:02;23.08;;;9.05;;
69226;SDS011;56334;52.398;7.552;2023-11-22T05:00:28;24.60;;;9.25;;
69226;SDS011;56334;52.398;7.552;2023-11-22T05:02:54;22.30;;;8.52;;
69226;SDS011;56334;52.398;7.552;2023-11-22T05:05:20;25.70;;;9.02;;
69226;SDS011;56334;52.398;7.552;2023-11-22T05:07:46;22.50;;;8.48;;
69226;SDS011;56334;52.398;7.552;2023-11-22T05:10:12;23.45;;;8.45;;
69226;SDS011;56334;52.398;7.552;2023-11-22T05:12:39;22.65;;;8.65;;
69226;SDS011;56334;52.398;7.552;2023-11-22T05:15:06;19.70;;;8.25;;
69226;SDS011;56334;52.398;7.552;2023-11-22T05:19:58;20.58;;;7.80;;
69226;SDS011;56334;52.398;7.552;2023-11-22T05:22:24;21.25;;;8.63;;
69226;SDS011;56334;52.398;7.552;2023-11-22T05:24:50;20.85;;;8.30;;
69226;SDS011;56334;52.398;7.552;2023-11-22T05:27:17;21.95;;;8.30;;
69226;SDS011;56334;52.398;7.552;2023-11-22T05:29:43;22.02;;;8.48;;
69226;SDS011;56334;52.398;7.552;2023-11-22T05:32:09;20.98;;;8.50;;
69226;SDS011;56334;52.398;7.552;2023-11-22T05:34:35;20.75;;;7.68;;
69226;SDS011;56334;52.398;7.552;2023-11-22T05:37:01;22.63;;;8.48;;
69226;SDS011;56334;52.398;7.552;2023-11-22T05:39:27;20.77;;;9.13;;
69226;SDS011;56334;52.398;7.552;2023-11-22T05:41:53;19.90;;;8.13;;
69226;SDS011;56334;52.398;7.552;2023-11-22T05:44:19;22.13;;;8.43;;
69226;SDS011;56334;52.398;7.552;2023-11-22T05:46:45;22.02;;;8.63;;
69226;SDS011;56334;52.398;7.552;2023-11-22T05:49:11;23.38;;;9.30;;
69226;SDS011;56334;52.398;7.552;2023-11-22T05:51:37;22.02;;;8.55;;
69226;SDS011;56334;52.398;7.552;2023-11-22T05:54:03;23.02;;;9.80;;
69226;SDS011;56334;52.398;7.552;2023-11-22T05:56:29;23.30;;;9.80;;
69226;SDS011;56334;52.398;7.552;2023-11-22T05:58:56;23.65;;;9.55;;
69226;SDS011;56334;52.398;7.552;2023-11-22T06:01:22;24.58;;;10.15;;
69226;SDS011;56334;52.398;7.552;2023-11-22T06:03:48;23.90;;;9.15;;
69226;SDS011;56334;52.398;7.552;2023-11-22T06:06:14;21.35;;;8.95;;
69226;SDS011;56334;52.398;7.552;2023-11-22T06:08:40;21.27;;;8.50;;
69226;SDS011;56334;52.398;7.552;2023-11-22T06:11:07;21.05;;;7.82;;
69226;SDS011;56334;52.398;7.552;2023-11-22T06:13:33;21.52;;;8.25;;
69226;SDS011;56334;52.398;7.552;2023-11-22T06:15:59;24.00;;;8.88;;
69226;SDS011;56334;52.398;7.552;2023-11-22T06:18:25;21.75;;;8.90;;
69226;SDS011;56334;52.398;7.552;2023-11-22T06:20:55;24.98;;;10.13;;
69226;SDS011;56334;52.398;7.552;2023-11-22T06:23:21;26.02;;;10.48;;
69226;SDS011;56334;52.398;7.552;2023-11-22T06:25:47;29.42;;;10.45;;
69226;SDS011;56334;52.398;7.552;2023-11-22T06:28:13;27.38;;;9.82;;
69226;SDS011;56334;52.398;7.552;2023-11-22T06:30:39;24.55;;;9.85;;
69226;SDS011;56334;52.398;7.552;2023-11-22T06:33:05;22.25;;;8.77;;
69226;SDS011;56334;52.398;7.552;2023-11-22T06:35:32;29.25;;;9.20;;
69226;SDS011;56334;52.398;7.552;2023-11-22T06:37:58;71.57;;;12.02;;
69226;SDS011;56334;52.398;7.552;2023-11-22T06:40:24;56.45;;;10.40;;
69226;SDS011;56334;52.398;7.552;2023-11-22T06:42:50;50.90;;;9.80;;
69226;SDS011;56334;52.398;7.552;2023-11-22T06:45:16;57.25;;;10.32;;
69226;SDS011;56334;52.398;7.552;2023-11-22T06:47:42;73.75;;;12.77;;
69226;SDS011;56334;52.398;7.552;2023-11-22T06:50:09;61.67;;;9.95;;
69226;SDS011;56334;52.398;7.552;2023-11-22T06:52:36;88.75;;;14.20;;
69226;SDS011;56334;52.398;7.552;2023-11-22T06:55:03;42.53;;;10.52;;
69226;SDS011;56334;52.398;7.552;2023-11-22T06:57:29;60.83;;;11.90;;
69226;SDS011;56334;52.398;7.552;2023-11-22T06:59:55;115.78;;;16.00;;
69226;SDS011;56334;52.398;7.552;2023-11-22T07:02:22;71.47;;;10.43;;
69226;SDS011;56334;52.398;7.552;2023-11-22T07:04:48;50.88;;;11.15;;
69226;SDS011;56334;52.398;7.552;2023-11-22T07:07:14;52.78;;;10.98;;
69226;SDS011;56334;52.398;7.552;2023-11-22T07:09:43;26.45;;;8.90;;
69226;SDS011;56334;52.398;7.552;2023-11-22T07:12:09;46.97;;;11.75;;
69226;SDS011;56334;52.398;7.552;2023-11-22T07:14:36;48.90;;;10.32;;
69226;SDS011;56334;52.398;7.552;2023-11-22T07:17:02;35.42;;;8.77;;
69226;SDS011;56334;52.398;7.552;2023-11-22T07:19:28;33.95;;;8.90;;
69226;SDS011;56334;52.398;7.552;2023-11-22T07:21:54;29.38;;;8.13;;
69226;SDS011;56334;52.398;7.552;2023-11-22T07:24:20;31.85;;;7.82;;
69226;SDS011;56334;52.398;7.552;2023-11-22T07:26:46;35.85;;;8.43;;
69226;SDS011;56334;52.398;7.552;2023-11-22T07:29:12;24.92;;;8.60;;
69226;SDS011;56334;52.398;7.552;2023-11-22T07:31:38;35.83;;;9.98;;
69226;SDS011;56334;52.398;7.552;2023-11-22T07:34:05;47.78;;;12.25;;
69226;SDS011;56334;52.398;7.552;2023-11-22T07:36:36;31.95;;;10.80;;
69226;SDS011;56334;52.398;7.552;2023-11-22T07:39:03;44.25;;;12.20;;
69226;SDS011;56334;52.398;7.552;2023-11-22T07:41:30;40.00;;;10.98;;
69226;SDS011;56334;52.398;7.552;2023-11-22T07:43:56;38.50;;;9.93;;
69226;SDS011;56334;52.398;7.552;2023-11-22T07:46:23;41.20;;;8.93;;
69226;SDS011;56334;52.398;7.552;2023-11-22T07:48:49;64.07;;;17.05;;
69226;SDS011;56334;52.398;7.552;2023-11-22T07:51:15;56.00;;;9.30;;
69226;SDS011;56334;52.398;7.552;2023-11-22T07:53:41;49.80;;;10.15;;
69226;SDS011;56334;52.398;7.552;2023-11-22T07:56:08;31.95;;;7.95;;
69226;SDS011;56334;52.398;7.552;2023-11-22T07:58:36;35.28;;;7.85;;
69226;SDS011;56334;52.398;7.552;2023-11-22T08:01:02;26.40;;;7.45;;
69226;SDS011;56334;52.398;7.552;2023-11-22T08:03:35;22.63;;;7.03;;
69226;SDS011;56334;52.398;7.552;2023-11-22T08:06:01;50.50;;;8.23;;
69226;SDS011;56334;52.398;7.552;2023-11-22T08:08:27;21.08;;;7.70;;
69226;SDS011;56334;52.398;7.552;2023-11-22T08:10:54;25.58;;;8.05;;
69226;SDS011;56334;52.398;7.552;2023-11-22T08:13:21;27.27;;;7.57;;
69226;SDS011;56334;52.398;7.552;2023-11-22T08:15:48;18.00;;;7.07;;
69226;SDS011;56334;52.398;7.552;2023-11-22T08:18:14;23.63;;;7.55;;
69226;SDS011;56334;52.398;7.552;2023-11-22T08:20:41;30.77;;;8.55;;
69226;SDS011;56334;52.398;7.552;2023-11-22T08:23:08;43.33;;;9.52;;
69226;SDS011;56334;52.398;7.552;2023-11-22T08:25:35;74.90;;;11.88;;
69226;SDS011;56334;52.398;7.552;2023-11-22T08:28:03;22.85;;;8.23;;
69226;SDS011;56334;52.398;7.552;2023-11-22T08:30:29;31.98;;;8.70;;
69226;SDS011;56334;52.398;7.552;2023-11-22T08:32:57;28.95;;;9.07;;
69226;SDS011;56334;52.398;7.552;2023-11-22T08:35:23;48.13;;;9.65;;
69226;SDS011;56334;52.398;7.552;2023-11-22T08:37:49;38.80;;;10.30;;
69226;SDS011;56334;52.398;7.552;2023-11-22T08:40:16;47.92;;;10.13;;
69226;SDS011;56334;52.398;7.552;2023-11-22T08:42:45;39.90;;;8.30;;
69226;SDS011;56334;52.398;7.552;2023-11-22T08:45:11;30.60;;;7.35;;
69226;SDS011;56334;52.398;7.552;2023-11-22T08:47:41;29.10;;;8.25;;
69226;SDS011;56334;52.398;7.552;2023-11-22T08:50:08;30.55;;;11.23;;
69226;SDS011;56334;52.398;7.552;2023-11-22T08:52:52;36.78;;;12.48;;
69226;SDS011;56334;52.398;7.552;2023-11-22T08:55:18;30.33;;;11.48;;
69226;SDS011;56334;52.398;7.552;2023-11-22T08:57:47;30.25;;;12.57;;
69226;SDS011;56334;52.398;7.552;2023-11-22T09:00:16;19.77;;;8.40;;
69226;SDS011;56334;52.398;7.552;2023-11-22T09:02:47;20.48;;;7.68;;
69226;SDS011;56334;52.398;7.552;2023-11-22T09:05:13;19.48;;;9.93;;
69226;SDS011;56334;52.398;7.552;2023-11-22T09:07:41;22.40;;;10.80;;
69226;SDS011;56334;52.398;7.552;2023-11-22T09:10:09;23.98;;;11.95;;
69226;SDS011;56334;52.398;7.552;2023-11-22T09:12:39;20.10;;;8.35;;
69226;SDS011;56334;52.398;7.552;2023-11-22T09:15:06;34.75;;;8.48;;
69226;SDS011;56334;52.398;7.552;2023-11-22T09:17:35;17.90;;;6.72;;
69226;SDS011;56334;52.398;7.552;2023-11-22T09:20:01;20.45;;;7.75;;
69226;SDS011;56334;52.398;7.552;2023-11-22T09:22:28;17.80;;;7.22;;
69226;SDS011;56334;52.398;7.552;2023-11-22T09:24:54;18.48;;;8.13;;
69226;SDS011;56334;52.398;7.552;2023-11-22T09:27:20;16.98;;;7.10;;
69226;SDS011;56334;52.398;7.552;2023-11-22T09:29:47;18.48;;;7.57;;
69226;SDS011;56334;52.398;7.552;2023-11-22T09:32:14;24.30;;;10.23;;
69226;SDS011;56334;52.398;7.552;2023-11-22T09:34:40;22.45;;;10.32;;
69226;SDS011;56334;52.398;7.552;2023-11-22T09:37:09;22.67;;;10.15;;
69226;SDS011;56334;52.398;7.552;2023-11-22T09:39:35;21.48;;;8.35;;
69226;SDS011;56334;52.398;7.552;2023-11-22T09:42:01;20.48;;;8.30;;
69226;SDS011;56334;52.398;7.552;2023-11-22T09:44:27;19.40;;;8.80;;
69226;SDS011;56334;52.398;7.552;2023-11-22T09:46:54;20.73;;;7.68;;
69226;SDS011;56334;52.398;7.552;2023-11-22T09:49:22;25.05;;;8.70;;
69226;SDS011;56334;52.398;7.552;2023-11-22T09:51:51;20.63;;;8.95;;
69226;SDS011;56334;52.398;7.552;2023-11-22T09:54:17;20.13;;;8.75;;
69226;SDS011;56334;52.398;7.552;2023-11-22T09:56:44;22.58;;;9.52;;
69226;SDS011;56334;52.398;7.552;2023-11-22T09:59:15;26.50;;;10.38;;
69226;SDS011;56334;52.398;7.552;2023-11-22T10:01:43;19.25;;;8.10;;
69226;SDS011;56334;52.398;7.552;2023-11-22T10:04:09;20.33;;;8.75;;
69226;SDS011;56334;52.398;7.552;2023-11-22T10:06:36;18.35;;;8.05;;
69226;SDS011;56334;52.398;7.552;2023-11-22T10:09:03;20.52;;;8.50;;
69226;SDS011;56334;52.398;7.552;2023-11-22T10:11:32;20.92;;;7.80;;
69226;SDS011;56334;52.398;7.552;2023-11-22T10:13:58;17.75;;;8.45;;
69226;SDS011;56334;52.398;7.552;2023-11-22T10:16:24;22.52;;;9.90;;
69226;SDS011;56334;52.398;7.552;2023-11-22T10:18:50;19.40;;;8.43;;
69226;SDS011;56334;52.398;7.552;2023-11-22T10:21:23;19.30;;;8.35;;
69226;SDS011;56334;52.398;7.552;2023-11-22T10:23:50;17.95;;;8.32;;
69226;SDS011;56334;52.398;7.552;2023-11-22T10:26:19;19.65;;;8.30;;
69226;SDS011;56334;52.398;7.552;2023-11-22T10:28:45;20.77;;;8.00;;
69226;SDS011;56334;52.398;7.552;2023-11-22T10:31:11;20.60;;;7.93;;
69226;SDS011;56334;52.398;7.552;2023-11-22T10:33:40;18.92;;;7.68;;
69226;SDS011;56334;52.398;7.552;2023-11-22T10:36:07;18.30;;;7.03;;
69226;SDS011;56334;52.398;7.552;2023-11-22T10:38:34;17.15;;;7.05;;
69226;SDS011;56334;52.398;7.552;2023-11-22T10:41:03;16.38;;;6.90;;
69226;SDS011;56334;52.398;7.552;2023-11-22T10:43:29;22.17;;;7.25;;
69226;SDS011;56334;52.398;7.552;2023-11-22T10:45:57;19.60;;;7.28;;
69226;SDS011;56334;52.398;7.552;2023-11-22T10:48:24;16.45;;;6.30;;
69226;SDS011;56334;52.398;7.552;2023-11-22T10:50:50;16.67;;;6.50;;
69226;SDS011;56334;52.398;7.552;2023-11-22T10:53:22;18.63;;;7.03;;
69226;SDS011;56334;52.398;7.552;2023-11-22T10:55:53;16.02;;;6.90;;
69226;SDS011;56334;52.398;7.552;2023-11-22T10:58:20;16.13;;;6.28;;
69226;SDS011;56334;52.398;7.552;2023-11-22T11:00:46;16.13;;;6.10;;
69226;SDS011;56334;52.398;7.552;2023-11-22T11:03:17;16.40;;;6.68;;
69226;SDS011;56334;52.398;7.552;2023-11-22T11:06:05;14.20;;;5.82;;
69226;SDS011;56334;52.398;7.552;2023-11-22T11:08:30;14.70;;;5.90;;
69226;SDS011;56334;52.398;7.552;2023-11-22T11:10:56;15.70;;;6.18;;
69226;SDS011;56334;52.398;7.552;2023-11-22T11:13:23;14.80;;;6.35;;
69226;SDS011;56334;52.398;7.552;2023-11-22T11:15:49;13.95;;;5.60;;
69226;SDS011;56334;52.398;7.552;2023-11-22T11:18:16;17.23;;;6.28;;
69226;SDS011;56334;52.398;7.552;2023-11-22T11:20:53;15.70;;;6.32;;
69226;SDS011;56334;52.398;7.552;2023-11-22T11:23:19;16.65;;;6.28;;
69226;SDS011;56334;52.398;7.552;2023-11-22T11:26:28;16.08;;;6.03;;
69226;SDS011;56334;52.398;7.552;2023-11-22T11:28:53;14.88;;;5.93;;
69226;SDS011;56334;52.398;7.552;2023-11-22T11:31:22;14.40;;;5.93;;
69226;SDS011;56334;52.398;7.552;2023-11-22T11:38:48;15.13;;;6.10;;
69226;SDS011;56334;52.398;7.552;2023-11-22T11:41:16;15.23;;;6.05;;
69226;SDS011;56334;52.398;7.552;2023-11-22T11:43:46;15.00;;;5.80;;
69226;SDS011;56334;52.398;7.552;2023-11-22T11:46:13;15.57;;;5.72;;
69226;SDS011;56334;52.398;7.552;2023-11-22T11:48:57;14.73;;;5.22;;
69226;SDS011;56334;52.398;7.552;2023-11-22T11:51:24;15.02;;;5.72;;
69226;SDS011;56334;52.398;7.552;2023-11-22T11:53:51;13.63;;;5.45;;
69226;SDS011;56334;52.398;7.552;2023-11-22T11:56:17;14.35;;;5.35;;
69226;SDS011;56334;52.398;7.552;2023-11-22T12:01:17;13.93;;;4.65;;
69226;SDS011;56334;52.398;7.552;2023-11-22T12:03:45;15.18;;;5.20;;
69226;SDS011;56334;52.398;7.552;2023-11-22T12:06:14;12.05;;;4.53;;
69226;SDS011;56334;52.398;7.552;2023-11-22T12:08:41;11.85;;;4.55;;
69226;SDS011;56334;52.398;7.552;2023-11-22T12:11:07;12.57;;;4.82;;
69226;SDS011;56334;52.398;7.552;2023-11-22T12:13:33;11.02;;;4.10;;
69226;SDS011;56334;52.398;7.552;2023-11-22T12:16:00;11.20;;;3.58;;
69226;SDS011;56334;52.398;7.552;2023-11-22T12:18:38;11.15;;;3.85;;
69226;SDS011;56334;52.398;7.552;2023-11-22T12:21:04;10.98;;;3.88;;
69226;SDS011;56334;52.398;7.552;2023-11-22T12:25:58;11.82;;;3.97;;
69226;SDS011;56334;52.398;7.552;2023-11-22T12:28:26;11.05;;;3.53;;
69226;SDS011;56334;52.398;7.552;2023-11-22T12:30:52;10.38;;;3.58;;
69226;SDS011;56334;52.398;7.552;2023-11-22T12:33:18;11.40;;;4.07;;
69226;SDS011;56334;52.398;7.552;2023-11-22T12:35:45;11.23;;;3.42;;
69226;SDS011;56334;52.398;7.552;2023-11-22T12:38:11;10.05;;;3.28;;
69226;SDS011;56334;52.398;7.552;2023-11-22T12:40:43;10.75;;;3.38;;
69226;SDS011;56334;52.398;7.552;2023-11-22T12:43:11;9.80;;;3.75;;
69226;SDS011;56334;52.398;7.552;2023-11-22T12:45:39;10.15;;;3.80;;
69226;SDS011;56334;52.398;7.552;2023-11-22T12:48:24;9.32;;;3.22;;
69226;SDS011;56334;52.398;7.552;2023-11-22T12:50:51;10.05;;;3.47;;
69226;SDS011;56334;52.398;7.552;2023-11-22T12:53:18;10.43;;;3.85;;
69226;SDS011;56334;52.398;7.552;2023-11-22T12:55:48;11.93;;;3.95;;
69226;SDS011;56334;52.398;7.552;2023-11-22T12:58:15;10.70;;;3.95;;
69226;SDS011;56334;52.398;7.552;2023-11-22T13:00:41;11.70;;;3.90;;
69226;SDS011;56334;52.398;7.552;2023-11-22T13:03:08;11.18;;;3.97;;
69226;SDS011;56334;52.398;7.552;2023-11-22T13:05:37;11.93;;;4.13;;
69226;SDS011;56334;52.398;7.552;2023-11-22T13:08:03;11.90;;;4.55;;
69226;SDS011;56334;52.398;7.552;2023-11-22T13:10:29;11.23;;;3.85;;
69226;SDS011;56334;52.398;7.552;2023-11-22T13:12:56;10.02;;;3.67;;
69226;SDS011;56334;52.398;7.552;2023-11-22T13:15:22;9.63;;;3.58;;
69226;SDS011;56334;52.398;7.552;2023-11-22T13:17:51;10.55;;;3.40;;
69226;SDS011;56334;52.398;7.552;2023-11-22T13:20:24;10.25;;;3.60;;
69226;SDS011;56334;52.398;7.552;2023-11-22T13:22:53;8.27;;;2.90;;
69226;SDS011;56334;52.398;7.552;2023-11-22T13:25:20;9.55;;;2.92;;
69226;SDS011;56334;52.398;7.552;2023-11-22T13:27:49;9.63;;;2.95;;
69226;SDS011;56334;52.398;7.552;2023-11-22T13:30:17;8.63;;;2.85;;
69226;SDS011;56334;52.398;7.552;2023-11-22T13:32:45;8.63;;;2.78;;
69226;SDS011;56334;52.398;7.552;2023-11-22T13:35:13;9.20;;;2.80;;
69226;SDS011;56334;52.398;7.552;2023-11-22T13:37:43;9.93;;;3.22;;
69226;SDS011;56334;52.398;7.552;2023-11-22T13:40:10;9.95;;;3.35;;
69226;SDS011;56334;52.398;7.552;2023-11-22T13:42:45;9.93;;;3.08;;
69226;SDS011;56334;52.398;7.552;2023-11-22T13:45:14;8.85;;;2.97;;
69226;SDS011;56334;52.398;7.552;2023-11-22T13:47:43;10.25;;;3.00;;
69226;SDS011;56334;52.398;7.552;2023-11-22T13:50:13;8.50;;;3.13;;
69226;SDS011;56334;52.398;7.552;2023-11-22T13:52:43;9.70;;;3.28;;
69226;SDS011;56334;52.398;7.552;2023-11-22T13:55:10;9.35;;;3.17;;
69226;SDS011;56334;52.398;7.552;2023-11-22T13:57:37;8.85;;;3.30;;
69226;SDS011;56334;52.398;7.552;2023-11-22T14:00:07;9.52;;;3.25;;
69226;SDS011;56334;52.398;7.552;2023-11-22T14:02:54;8.63;;;3.00;;
69226;SDS011;56334;52.398;7.552;2023-11-22T14:05:24;9.75;;;3.53;;
69226;SDS011;56334;52.398;7.552;2023-11-22T14:07:51;9.38;;;3.40;;
69226;SDS011;56334;52.398;7.552;2023-11-22T14:10:17;11.25;;;3.88;;
69226;SDS011;56334;52.398;7.552;2023-11-22T14:12:44;9.57;;;3.47;;
69226;SDS011;56334;52.398;7.552;2023-11-22T14:15:11;9.95;;;3.38;;
69226;SDS011;56334;52.398;7.552;2023-11-22T14:17:37;11.02;;;3.70;;
69226;SDS011;56334;52.398;7.552;2023-11-22T14:20:05;10.13;;;3.42;;
69226;SDS011;56334;52.398;7.552;2023-11-22T14:22:34;11.15;;;3.67;;
69226;SDS011;56334;52.398;7.552;2023-11-22T14:25:00;9.60;;;3.65;;
69226;SDS011;56334;52.398;7.552;2023-11-22T14:27:26;10.02;;;3.33;;
69226;SDS011;56334;52.398;7.552;2023-11-22T14:29:54;10.52;;;3.50;;
69226;SDS011;56334;52.398;7.552;2023-11-22T14:32:20;10.13;;;3.60;;
69226;SDS011;56334;52.398;7.552;2023-11-22T14:34:46;10.43;;;3.75;;
69226;SDS011;56334;52.398;7.552;2023-11-22T14:37:12;10.82;;;3.53;;
69226;SDS011;56334;52.398;7.552;2023-11-22T14:39:39;11.32;;;3.65;;
69226;SDS011;56334;52.398;7.552;2023-11-22T14:42:05;11.60;;;3.53;;
69226;SDS011;56334;52.398;7.552;2023-11-22T14:44:32;11.10;;;4.13;;
69226;SDS011;56334;52.398;7.552;2023-11-22T14:46:59;11.27;;;3.72;;